• Join FlightAware (Why Join?)
  • Login
  • US Flag 
08:38AM EDT


 

Airport Tracker/Info


-or-


 

Live Flight TrackerFlight Track Log ✈ JLG821 ✈ 08-May-2013 ✈ KPGV - KRDU

Flight Track Log - Related Links

Times and Time Zones

All times are in EDT time to prevent confusion due to time zone crossing. See the JLG821 flight status page for this flight to view local times or setup timezone preferences in your user account.

Time Position Orientation Groundspeed Altitude Reporting Facility
EDT Latitude Longitude Course Direction KTS MPH feet Rate Location/Type
03:55PM 35.6231 -77.5239 259° West 254 292 4,100  Level Washington Center
03:56PM 35.6303 -77.5981 277° West 238 274 4,000  Descending Washington Center
03:57PM 35.6289 -77.6722 269° West 227 261 4,100  Climbing Washington Center
03:58PM 35.6358 -77.7464 277° West 227 261 4,100 -60 Level Washington Center
03:59PM 35.6533 -77.8158 287° West 217 250 4,000 -60 Descending Washington Center
04:00PM 35.6772 -77.8856 293° West 217 250 4,000  Level Washington Center
04:00PM 35.6844 -77.9422 279° West 219 252 4,000  Level Washington Center
04:01PM 35.6883 -77.9575 287° West 217 250 4,000  Level Washington Center
04:01PM 35.6953 -78.0269 277° West 218 251 4,000  Level Washington Center
04:02PM 35.7125 -78.0989 286° West 221 254 4,000  Level Washington Center
04:03PM 35.7381 -78.1739 293° West 224 258 4,000  Level Washington Center
04:04PM 35.7578 -78.2308 293° West 222 255 4,000  Level Washington Center
04:05PM 35.7658 -78.2414 313° West 222 255 4,000  Level Washington Center
04:05PM 35.7936 -78.3014 300° West 224 258 4,000  Level Washington Center
04:06PM 35.7978 -78.3039 334° Northwest 222 255 4,000  Level Washington Center
04:06PM 35.8153 -78.3583 292° West 224 258 4,000 -240 Level Washington Center
04:07PM 35.8253 -78.3742 308° West 222 255 3,800 -840 Descending Washington Center
04:07PM 35.8447 -78.4336 292° West 207 238 3,100 -420 Descending Washington Center
04:09PM 35.8744 -78.5014 298° West 205 236 3,100 -60 Level Washington Center
04:09PM 35.8861 -78.5403 290° West 209 241 3,000 -180 Descending Washington Center
04:10PM 35.8958 -78.5636 297° West 216 249 2,900 -300 Descending Washington Center
04:10PM 35.9072 -78.6128 286° West 190 219 2,700 -420 Descending Washington Center
04:12PM 35.8915 -78.7056 284° West  Level Estimated
04:12PM 35.9275 -78.7189 284° West 141 162 1,900  Level Washington Center
04:14PM 35.9075 -78.7617 240° Southwest 114 131 900 -840 Descending Washington Center
04:15PM 35.8776 -78.7875 284° West  Level Estimated
04:22PM 35.8776 -78.7875 284° West  Level Estimated
04:23PM 35.8776 -78.7875 284° West  Level Estimated